sensor_id;sensor_type;location;lat;lon;timestamp;P1;durP1;ratioP1;P2;durP2;ratioP2
55720;SDS011;41626;53.098;6.168;2022-08-25T00:03:36;46.05;;;41.35;;
55720;SDS011;41626;53.098;6.168;2022-08-25T00:06:03;45.70;;;41.15;;
55720;SDS011;41626;53.098;6.168;2022-08-25T00:08:30;45.05;;;40.30;;
55720;SDS011;41626;53.098;6.168;2022-08-25T00:10:59;47.83;;;43.05;;
55720;SDS011;41626;53.098;6.168;2022-08-25T00:13:25;43.50;;;39.40;;
55720;SDS011;41626;53.098;6.168;2022-08-25T00:15:52;45.67;;;41.05;;
55720;SDS011;41626;53.098;6.168;2022-08-25T00:18:18;44.13;;;38.58;;
55720;SDS011;41626;53.098;6.168;2022-08-25T00:20:44;43.83;;;39.72;;
55720;SDS011;41626;53.098;6.168;2022-08-25T00:23:11;42.45;;;37.88;;
55720;SDS011;41626;53.098;6.168;2022-08-25T00:25:37;41.25;;;36.95;;
55720;SDS011;41626;53.098;6.168;2022-08-25T00:28:03;40.42;;;36.35;;
55720;SDS011;41626;53.098;6.168;2022-08-25T00:30:28;38.45;;;34.15;;
55720;SDS011;41626;53.098;6.168;2022-08-25T00:32:54;39.70;;;35.70;;
55720;SDS011;41626;53.098;6.168;2022-08-25T00:35:20;38.00;;;34.20;;
55720;SDS011;41626;53.098;6.168;2022-08-25T00:37:47;36.47;;;32.42;;
55720;SDS011;41626;53.098;6.168;2022-08-25T00:40:13;33.90;;;30.50;;
55720;SDS011;41626;53.098;6.168;2022-08-25T00:42:38;33.72;;;30.25;;
55720;SDS011;41626;53.098;6.168;2022-08-25T00:45:05;33.15;;;29.70;;
55720;SDS011;41626;53.098;6.168;2022-08-25T00:47:32;32.97;;;29.63;;
55720;SDS011;41626;53.098;6.168;2022-08-25T00:49:58;32.38;;;29.08;;
55720;SDS011;41626;53.098;6.168;2022-08-25T00:52:28;28.42;;;25.67;;
55720;SDS011;41626;53.098;6.168;2022-08-25T00:55:15;27.63;;;25.17;;
55720;SDS011;41626;53.098;6.168;2022-08-25T00:58:02;25.80;;;22.67;;
55720;SDS011;41626;53.098;6.168;2022-08-25T01:00:36;25.08;;;22.67;;
55720;SDS011;41626;53.098;6.168;2022-08-25T01:03:03;25.10;;;21.38;;
55720;SDS011;41626;53.098;6.168;2022-08-25T01:05:29;22.52;;;20.23;;
55720;SDS011;41626;53.098;6.168;2022-08-25T01:07:56;19.73;;;17.65;;
55720;SDS011;41626;53.098;6.168;2022-08-25T01:10:23;19.90;;;18.08;;
55720;SDS011;41626;53.098;6.168;2022-08-25T01:12:51;24.58;;;17.63;;
55720;SDS011;41626;53.098;6.168;2022-08-25T01:15:21;17.25;;;15.15;;
55720;SDS011;41626;53.098;6.168;2022-08-25T01:17:48;18.50;;;16.45;;
55720;SDS011;41626;53.098;6.168;2022-08-25T01:20:17;16.08;;;14.65;;
55720;SDS011;41626;53.098;6.168;2022-08-25T01:22:45;16.05;;;14.40;;
55720;SDS011;41626;53.098;6.168;2022-08-25T01:25:19;18.23;;;14.45;;
55720;SDS011;41626;53.098;6.168;2022-08-25T01:27:58;17.40;;;15.63;;
55720;SDS011;41626;53.098;6.168;2022-08-25T01:30:24;15.65;;;13.57;;
55720;SDS011;41626;53.098;6.168;2022-08-25T01:32:50;12.95;;;11.38;;
55720;SDS011;41626;53.098;6.168;2022-08-25T01:35:16;15.93;;;12.50;;
55720;SDS011;41626;53.098;6.168;2022-08-25T01:37:43;12.50;;;11.10;;
55720;SDS011;41626;53.098;6.168;2022-08-25T01:40:09;11.43;;;10.43;;
55720;SDS011;41626;53.098;6.168;2022-08-25T01:42:46;15.38;;;11.13;;
55720;SDS011;41626;53.098;6.168;2022-08-25T01:45:16;12.27;;;11.07;;
55720;SDS011;41626;53.098;6.168;2022-08-25T01:47:42;10.52;;;8.07;;
55720;SDS011;41626;53.098;6.168;2022-08-25T01:50:08;12.23;;;9.55;;
55720;SDS011;41626;53.098;6.168;2022-08-25T01:55:03;9.23;;;7.85;;
55720;SDS011;41626;53.098;6.168;2022-08-25T01:57:29;8.55;;;7.68;;
55720;SDS011;41626;53.098;6.168;2022-08-25T01:59:56;8.18;;;7.38;;
55720;SDS011;41626;53.098;6.168;2022-08-25T02:02:22;12.98;;;8.02;;
55720;SDS011;41626;53.098;6.168;2022-08-25T02:04:48;7.90;;;6.88;;
55720;SDS011;41626;53.098;6.168;2022-08-25T02:07:14;12.55;;;7.25;;
55720;SDS011;41626;53.098;6.168;2022-08-25T02:09:39;6.53;;;5.30;;
55720;SDS011;41626;53.098;6.168;2022-08-25T02:12:05;12.13;;;6.07;;
55720;SDS011;41626;53.098;6.168;2022-08-25T02:14:33;7.82;;;6.25;;
55720;SDS011;41626;53.098;6.168;2022-08-25T02:17:00;8.50;;;4.72;;
55720;SDS011;41626;53.098;6.168;2022-08-25T02:19:27;12.18;;;5.07;;
55720;SDS011;41626;53.098;6.168;2022-08-25T02:21:55;7.47;;;4.53;;
55720;SDS011;41626;53.098;6.168;2022-08-25T02:24:21;9.77;;;4.85;;
55720;SDS011;41626;53.098;6.168;2022-08-25T02:26:47;6.65;;;4.70;;
55720;SDS011;41626;53.098;6.168;2022-08-25T02:29:12;7.80;;;4.80;;
55720;SDS011;41626;53.098;6.168;2022-08-25T02:31:39;8.25;;;4.03;;
55720;SDS011;41626;53.098;6.168;2022-08-25T02:34:05;6.75;;;4.35;;
55720;SDS011;41626;53.098;6.168;2022-08-25T02:36:31;6.28;;;3.50;;
55720;SDS011;41626;53.098;6.168;2022-08-25T02:38:57;5.88;;;3.22;;
55720;SDS011;41626;53.098;6.168;2022-08-25T02:41:23;5.32;;;3.63;;
55720;SDS011;41626;53.098;6.168;2022-08-25T02:43:51;8.50;;;4.28;;
55720;SDS011;41626;53.098;6.168;2022-08-25T02:46:18;6.18;;;4.32;;
55720;SDS011;41626;53.098;6.168;2022-08-25T02:48:44;5.47;;;4.10;;
55720;SDS011;41626;53.098;6.168;2022-08-25T02:51:11;8.23;;;4.05;;
55720;SDS011;41626;53.098;6.168;2022-08-25T02:53:37;3.83;;;3.40;;
55720;SDS011;41626;53.098;6.168;2022-08-25T02:56:05;7.18;;;3.95;;
55720;SDS011;41626;53.098;6.168;2022-08-25T02:58:32;11.38;;;4.80;;
55720;SDS011;41626;53.098;6.168;2022-08-25T03:00:58;12.40;;;4.90;;
55720;SDS011;41626;53.098;6.168;2022-08-25T03:03:24;6.00;;;3.03;;
55720;SDS011;41626;53.098;6.168;2022-08-25T03:05:50;7.28;;;3.28;;
55720;SDS011;41626;53.098;6.168;2022-08-25T03:08:15;4.50;;;2.83;;
55720;SDS011;41626;53.098;6.168;2022-08-25T03:10:41;16.88;;;4.38;;
55720;SDS011;41626;53.098;6.168;2022-08-25T03:13:07;8.73;;;3.33;;
55720;SDS011;41626;53.098;6.168;2022-08-25T03:15:33;7.28;;;2.70;;
55720;SDS011;41626;53.098;6.168;2022-08-25T03:18:02;7.85;;;2.63;;
55720;SDS011;41626;53.098;6.168;2022-08-25T03:20:29;15.32;;;5.93;;
55720;SDS011;41626;53.098;6.168;2022-08-25T03:22:55;6.57;;;3.22;;
55720;SDS011;41626;53.098;6.168;2022-08-25T03:25:21;5.32;;;3.97;;
55720;SDS011;41626;53.098;6.168;2022-08-25T03:28:06;5.07;;;3.15;;
55720;SDS011;41626;53.098;6.168;2022-08-25T03:30:32;4.25;;;2.72;;
55720;SDS011;41626;53.098;6.168;2022-08-25T03:32:58;3.47;;;2.50;;
55720;SDS011;41626;53.098;6.168;2022-08-25T03:35:24;6.75;;;2.92;;
55720;SDS011;41626;53.098;6.168;2022-08-25T03:37:49;7.72;;;2.58;;
55720;SDS011;41626;53.098;6.168;2022-08-25T03:40:18;8.60;;;2.67;;
55720;SDS011;41626;53.098;6.168;2022-08-25T03:42:47;7.97;;;3.10;;
55720;SDS011;41626;53.098;6.168;2022-08-25T03:45:13;11.32;;;4.88;;
55720;SDS011;41626;53.098;6.168;2022-08-25T03:47:40;13.23;;;3.03;;
55720;SDS011;41626;53.098;6.168;2022-08-25T03:50:07;4.25;;;3.30;;
55720;SDS011;41626;53.098;6.168;2022-08-25T03:52:35;5.07;;;3.22;;
55720;SDS011;41626;53.098;6.168;2022-08-25T03:55:02;9.45;;;3.47;;
55720;SDS011;41626;53.098;6.168;2022-08-25T03:57:30;7.90;;;2.97;;
55720;SDS011;41626;53.098;6.168;2022-08-25T03:59:56;6.18;;;3.03;;
55720;SDS011;41626;53.098;6.168;2022-08-25T04:02:21;6.95;;;2.60;;
55720;SDS011;41626;53.098;6.168;2022-08-25T04:04:47;4.70;;;2.83;;
55720;SDS011;41626;53.098;6.168;2022-08-25T04:07:13;6.13;;;3.33;;
55720;SDS011;41626;53.098;6.168;2022-08-25T04:09:38;7.47;;;3.10;;
55720;SDS011;41626;53.098;6.168;2022-08-25T04:12:04;4.00;;;2.65;;
55720;SDS011;41626;53.098;6.168;2022-08-25T04:14:30;5.15;;;2.58;;
55720;SDS011;41626;53.098;6.168;2022-08-25T04:16:56;4.43;;;3.15;;
55720;SDS011;41626;53.098;6.168;2022-08-25T04:19:22;7.28;;;3.60;;
55720;SDS011;41626;53.098;6.168;2022-08-25T04:21:48;7.00;;;3.45;;
55720;SDS011;41626;53.098;6.168;2022-08-25T04:24:13;5.53;;;2.90;;
55720;SDS011;41626;53.098;6.168;2022-08-25T04:26:41;3.38;;;2.95;;
55720;SDS011;41626;53.098;6.168;2022-08-25T04:29:13;4.60;;;3.40;;
55720;SDS011;41626;53.098;6.168;2022-08-25T04:31:42;5.35;;;3.15;;
55720;SDS011;41626;53.098;6.168;2022-08-25T04:34:11;7.18;;;3.58;;
55720;SDS011;41626;53.098;6.168;2022-08-25T04:36:37;8.05;;;3.38;;
55720;SDS011;41626;53.098;6.168;2022-08-25T04:39:03;6.32;;;2.83;;
55720;SDS011;41626;53.098;6.168;2022-08-25T04:41:29;12.43;;;3.25;;
55720;SDS011;41626;53.098;6.168;2022-08-25T04:43:56;6.28;;;3.08;;
55720;SDS011;41626;53.098;6.168;2022-08-25T04:46:24;5.80;;;3.78;;
55720;SDS011;41626;53.098;6.168;2022-08-25T04:48:52;8.52;;;3.20;;
55720;SDS011;41626;53.098;6.168;2022-08-25T04:51:23;9.05;;;3.50;;
55720;SDS011;41626;53.098;6.168;2022-08-25T04:53:52;11.38;;;3.53;;
55720;SDS011;41626;53.098;6.168;2022-08-25T04:56:19;7.88;;;2.95;;
55720;SDS011;41626;53.098;6.168;2022-08-25T04:58:49;9.93;;;3.60;;
55720;SDS011;41626;53.098;6.168;2022-08-25T05:01:16;4.63;;;2.92;;
55720;SDS011;41626;53.098;6.168;2022-08-25T05:03:44;6.78;;;3.78;;
55720;SDS011;41626;53.098;6.168;2022-08-25T05:06:12;11.40;;;3.53;;
55720;SDS011;41626;53.098;6.168;2022-08-25T05:08:39;9.68;;;3.00;;
55720;SDS011;41626;53.098;6.168;2022-08-25T05:11:05;8.75;;;3.58;;
55720;SDS011;41626;53.098;6.168;2022-08-25T05:13:32;3.80;;;3.03;;
55720;SDS011;41626;53.098;6.168;2022-08-25T05:15:58;11.23;;;3.17;;
55720;SDS011;41626;53.098;6.168;2022-08-25T05:18:26;6.60;;;3.17;;
55720;SDS011;41626;53.098;6.168;2022-08-25T05:20:53;12.60;;;3.75;;
55720;SDS011;41626;53.098;6.168;2022-08-25T05:23:20;8.95;;;4.97;;
55720;SDS011;41626;53.098;6.168;2022-08-25T05:25:47;4.55;;;2.95;;
55720;SDS011;41626;53.098;6.168;2022-08-25T05:28:15;6.78;;;3.58;;
55720;SDS011;41626;53.098;6.168;2022-08-25T05:30:41;11.55;;;3.67;;
55720;SDS011;41626;53.098;6.168;2022-08-25T05:33:08;10.60;;;4.30;;
55720;SDS011;41626;53.098;6.168;2022-08-25T05:35:34;4.30;;;3.30;;
55720;SDS011;41626;53.098;6.168;2022-08-25T05:38:00;9.15;;;4.13;;
55720;SDS011;41626;53.098;6.168;2022-08-25T05:40:27;12.65;;;4.32;;
55720;SDS011;41626;53.098;6.168;2022-08-25T05:42:53;5.70;;;2.92;;
55720;SDS011;41626;53.098;6.168;2022-08-25T05:45:19;8.52;;;3.60;;
55720;SDS011;41626;53.098;6.168;2022-08-25T05:47:45;3.78;;;3.20;;
55720;SDS011;41626;53.098;6.168;2022-08-25T05:50:10;4.30;;;3.58;;
55720;SDS011;41626;53.098;6.168;2022-08-25T05:52:36;8.23;;;3.47;;
55720;SDS011;41626;53.098;6.168;2022-08-25T05:55:03;4.38;;;3.17;;
55720;SDS011;41626;53.098;6.168;2022-08-25T05:57:31;7.43;;;3.03;;
55720;SDS011;41626;53.098;6.168;2022-08-25T05:59:57;8.98;;;3.70;;
55720;SDS011;41626;53.098;6.168;2022-08-25T06:02:23;5.65;;;2.70;;
55720;SDS011;41626;53.098;6.168;2022-08-25T06:05:13;6.95;;;2.90;;
55720;SDS011;41626;53.098;6.168;2022-08-25T06:07:42;6.40;;;3.40;;
55720;SDS011;41626;53.098;6.168;2022-08-25T06:10:10;6.28;;;3.20;;
55720;SDS011;41626;53.098;6.168;2022-08-25T06:12:45;6.88;;;3.13;;
55720;SDS011;41626;53.098;6.168;2022-08-25T06:15:13;5.93;;;3.35;;
55720;SDS011;41626;53.098;6.168;2022-08-25T06:17:40;9.05;;;3.17;;
55720;SDS011;41626;53.098;6.168;2022-08-25T06:22:34;5.82;;;4.07;;
55720;SDS011;41626;53.098;6.168;2022-08-25T06:25:01;3.70;;;2.85;;
55720;SDS011;41626;53.098;6.168;2022-08-25T06:27:30;10.23;;;3.63;;
55720;SDS011;41626;53.098;6.168;2022-08-25T06:29:56;8.23;;;3.40;;
55720;SDS011;41626;53.098;6.168;2022-08-25T06:32:22;8.45;;;2.80;;
55720;SDS011;41626;53.098;6.168;2022-08-25T06:34:48;10.45;;;3.35;;
55720;SDS011;41626;53.098;6.168;2022-08-25T06:37:13;7.20;;;3.03;;
55720;SDS011;41626;53.098;6.168;2022-08-25T06:39:39;9.55;;;3.08;;
55720;SDS011;41626;53.098;6.168;2022-08-25T06:42:05;5.40;;;2.90;;
55720;SDS011;41626;53.098;6.168;2022-08-25T06:44:30;5.40;;;3.40;;
55720;SDS011;41626;53.098;6.168;2022-08-25T06:46:56;5.45;;;3.50;;
55720;SDS011;41626;53.098;6.168;2022-08-25T06:49:22;12.45;;;3.45;;
55720;SDS011;41626;53.098;6.168;2022-08-25T06:51:51;10.27;;;4.40;;
55720;SDS011;41626;53.098;6.168;2022-08-25T06:54:17;9.45;;;3.67;;
55720;SDS011;41626;53.098;6.168;2022-08-25T06:56:43;13.30;;;5.68;;
55720;SDS011;41626;53.098;6.168;2022-08-25T06:59:09;11.60;;;5.05;;
55720;SDS011;41626;53.098;6.168;2022-08-25T07:01:35;11.00;;;4.38;;
55720;SDS011;41626;53.098;6.168;2022-08-25T07:04:02;7.85;;;4.07;;
55720;SDS011;41626;53.098;6.168;2022-08-25T07:06:31;9.32;;;3.42;;
55720;SDS011;41626;53.098;6.168;2022-08-25T07:08:59;6.75;;;3.13;;
55720;SDS011;41626;53.098;6.168;2022-08-25T07:11:26;6.70;;;3.65;;
55720;SDS011;41626;53.098;6.168;2022-08-25T07:13:52;10.45;;;4.30;;
55720;SDS011;41626;53.098;6.168;2022-08-25T07:16:18;10.73;;;3.97;;
55720;SDS011;41626;53.098;6.168;2022-08-25T07:18:45;6.93;;;3.85;;
55720;SDS011;41626;53.098;6.168;2022-08-25T07:21:12;5.35;;;2.65;;
55720;SDS011;41626;53.098;6.168;2022-08-25T07:23:40;6.30;;;3.78;;
55720;SDS011;41626;53.098;6.168;2022-08-25T07:26:07;7.43;;;3.40;;
55720;SDS011;41626;53.098;6.168;2022-08-25T07:28:41;5.22;;;2.97;;
55720;SDS011;41626;53.098;6.168;2022-08-25T07:31:08;7.25;;;3.85;;
55720;SDS011;41626;53.098;6.168;2022-08-25T07:33:33;9.45;;;3.08;;
55720;SDS011;41626;53.098;6.168;2022-08-25T07:35:59;4.68;;;3.15;;
55720;SDS011;41626;53.098;6.168;2022-08-25T07:38:25;8.57;;;3.30;;
55720;SDS011;41626;53.098;6.168;2022-08-25T07:40:59;48.08;;;4.55;;
55720;SDS011;41626;53.098;6.168;2022-08-25T07:43:26;9.70;;;3.47;;
55720;SDS011;41626;53.098;6.168;2022-08-25T07:45:51;11.10;;;4.22;;
55720;SDS011;41626;53.098;6.168;2022-08-25T07:48:17;9.00;;;4.05;;
55720;SDS011;41626;53.098;6.168;2022-08-25T07:50:44;8.93;;;3.70;;
55720;SDS011;41626;53.098;6.168;2022-08-25T07:53:12;4.85;;;2.67;;
55720;SDS011;41626;53.098;6.168;2022-08-25T07:55:38;4.50;;;3.00;;
55720;SDS011;41626;53.098;6.168;2022-08-25T07:58:06;7.07;;;2.97;;
55720;SDS011;41626;53.098;6.168;2022-08-25T08:00:33;7.57;;;3.17;;
55720;SDS011;41626;53.098;6.168;2022-08-25T08:03:01;5.35;;;2.70;;
55720;SDS011;41626;53.098;6.168;2022-08-25T08:05:31;5.82;;;2.22;;
55720;SDS011;41626;53.098;6.168;2022-08-25T08:07:57;7.55;;;3.53;;
55720;SDS011;41626;53.098;6.168;2022-08-25T08:10:24;4.65;;;3.05;;
55720;SDS011;41626;53.098;6.168;2022-08-25T08:12:50;9.20;;;2.70;;
55720;SDS011;41626;53.098;6.168;2022-08-25T08:15:16;7.68;;;3.45;;
55720;SDS011;41626;53.098;6.168;2022-08-25T08:17:43;5.57;;;2.72;;
55720;SDS011;41626;53.098;6.168;2022-08-25T08:20:10;5.90;;;3.35;;
55720;SDS011;41626;53.098;6.168;2022-08-25T08:22:39;7.93;;;2.70;;
55720;SDS011;41626;53.098;6.168;2022-08-25T08:25:07;8.45;;;3.35;;
55720;SDS011;41626;53.098;6.168;2022-08-25T08:27:34;4.35;;;3.15;;
55720;SDS011;41626;53.098;6.168;2022-08-25T08:30:00;7.40;;;3.00;;
55720;SDS011;41626;53.098;6.168;2022-08-25T08:32:26;6.00;;;2.65;;
55720;SDS011;41626;53.098;6.168;2022-08-25T08:34:52;5.35;;;2.50;;
55720;SDS011;41626;53.098;6.168;2022-08-25T08:37:18;8.75;;;2.70;;
55720;SDS011;41626;53.098;6.168;2022-08-25T08:39:44;4.97;;;3.13;;
55720;SDS011;41626;53.098;6.168;2022-08-25T08:42:32;5.93;;;3.03;;
55720;SDS011;41626;53.098;6.168;2022-08-25T08:48:20;6.22;;;2.53;;
55720;SDS011;41626;53.098;6.168;2022-08-25T08:53:42;4.50;;;2.30;;
55720;SDS011;41626;53.098;6.168;2022-08-25T08:56:13;6.93;;;3.40;;
55720;SDS011;41626;53.098;6.168;2022-08-25T08:58:47;4.15;;;2.50;;
55720;SDS011;41626;53.098;6.168;2022-08-25T09:01:17;8.45;;;2.95;;
55720;SDS011;41626;53.098;6.168;2022-08-25T09:03:50;5.43;;;2.88;;
55720;SDS011;41626;53.098;6.168;2022-08-25T09:06:37;6.53;;;2.35;;
55720;SDS011;41626;53.098;6.168;2022-08-25T09:09:09;7.35;;;2.75;;
55720;SDS011;41626;53.098;6.168;2022-08-25T09:25:21;4.80;;;1.50;;
55720;SDS011;41626;53.098;6.168;2022-08-25T09:27:45;5.45;;;2.13;;
55720;SDS011;41626;53.098;6.168;2022-08-25T09:30:21;6.38;;;2.20;;
55720;SDS011;41626;53.098;6.168;2022-08-25T09:32:51;5.50;;;2.58;;
55720;SDS011;41626;53.098;6.168;2022-08-25T09:35:26;16.77;;;3.42;;
55720;SDS011;41626;53.098;6.168;2022-08-25T09:37:58;4.53;;;1.83;;
55720;SDS011;41626;53.098;6.168;2022-08-25T09:40:25;5.75;;;2.38;;
55720;SDS011;41626;53.098;6.168;2022-08-25T09:42:55;8.13;;;2.13;;
55720;SDS011;41626;53.098;6.168;2022-08-25T09:45:42;8.05;;;2.03;;
55720;SDS011;41626;53.098;6.168;2022-08-25T09:48:19;5.63;;;1.95;;
55720;SDS011;41626;53.098;6.168;2022-08-25T09:50:45;6.15;;;2.65;;
55720;SDS011;41626;53.098;6.168;2022-08-25T09:53:13;6.40;;;1.95;;
55720;SDS011;41626;53.098;6.168;2022-08-25T09:55:40;12.82;;;2.03;;
55720;SDS011;41626;53.098;6.168;2022-08-25T09:58:16;2.92;;;2.42;;
55720;SDS011;41626;53.098;6.168;2022-08-25T10:01:02;3.90;;;2.10;;
55720;SDS011;41626;53.098;6.168;2022-08-25T10:03:37;5.57;;;1.63;;
55720;SDS011;41626;53.098;6.168;2022-08-25T10:06:19;3.30;;;2.05;;
55720;SDS011;41626;53.098;6.168;2022-08-25T10:11:13;4.05;;;1.70;;
55720;SDS011;41626;53.098;6.168;2022-08-25T10:16:48;6.38;;;1.98;;
55720;SDS011;41626;53.098;6.168;2022-08-25T10:21:46;5.13;;;2.30;;
55720;SDS011;41626;53.098;6.168;2022-08-25T10:24:50;4.28;;;2.05;;
55720;SDS011;41626;53.098;6.168;2022-08-25T10:28:21;8.15;;;1.92;;
55720;SDS011;41626;53.098;6.168;2022-08-25T10:30:22;3.05;;;1.45;;
55720;SDS011;41626;53.098;6.168;2022-08-25T10:47:10;3.72;;;1.95;;
55720;SDS011;41626;53.098;6.168;2022-08-25T10:49:54;4.18;;;2.25;;
55720;SDS011;41626;53.098;6.168;2022-08-25T10:55:29;3.80;;;1.60;;
55720;SDS011;41626;53.098;6.168;2022-08-25T11:01:18;3.00;;;2.38;;
55720;SDS011;41626;53.098;6.168;2022-08-25T11:04:02;3.28;;;1.80;;
55720;SDS011;41626;53.098;6.168;2022-08-25T11:06:41;3.75;;;1.85;;
55720;SDS011;41626;53.098;6.168;2022-08-25T11:09:13;5.07;;;2.07;;
55720;SDS011;41626;53.098;6.168;2022-08-25T11:12:06;4.57;;;1.90;;
55720;SDS011;41626;53.098;6.168;2022-08-25T11:14:36;2.08;;;1.73;;
55720;SDS011;41626;53.098;6.168;2022-08-25T11:19:58;1.75;;;1.35;;
55720;SDS011;41626;53.098;6.168;2022-08-25T11:22:43;6.00;;;1.98;;
55720;SDS011;41626;53.098;6.168;2022-08-25T11:25:27;4.55;;;2.00;;
55720;SDS011;41626;53.098;6.168;2022-08-25T11:28:05;6.38;;;1.83;;
55720;SDS011;41626;53.098;6.168;2022-08-25T11:30:43;5.75;;;2.00;;
55720;SDS011;41626;53.098;6.168;2022-08-25T11:33:15;4.15;;;1.88;;
55720;SDS011;41626;53.098;6.168;2022-08-25T11:35:42;4.10;;;2.33;;
55720;SDS011;41626;53.098;6.168;2022-08-25T11:46:47;4.53;;;2.10;;
55720;SDS011;41626;53.098;6.168;2022-08-25T11:55:18;4.07;;;1.95;;
55720;SDS011;41626;53.098;6.168;2022-08-25T11:58:28;4.43;;;1.90;;
55720;SDS011;41626;53.098;6.168;2022-08-25T12:01:01;5.05;;;2.15;;
55720;SDS011;41626;53.098;6.168;2022-08-25T12:17:08;6.60;;;2.05;;
55720;SDS011;41626;53.098;6.168;2022-08-25T12:37:59;5.05;;;2.10;;
55720;SDS011;41626;53.098;6.168;2022-08-25T12:41:11;3.92;;;1.83;;
55720;SDS011;41626;53.098;6.168;2022-08-25T12:43:49;3.50;;;2.10;;
55720;SDS011;41626;53.098;6.168;2022-08-25T12:48:56;3.17;;;2.17;;
55720;SDS011;41626;53.098;6.168;2022-08-25T12:51:23;3.95;;;1.88;;
55720;SDS011;41626;53.098;6.168;2022-08-25T12:56:41;2.03;;;1.40;;
55720;SDS011;41626;53.098;6.168;2022-08-25T12:59:21;3.67;;;1.70;;
55720;SDS011;41626;53.098;6.168;2022-08-25T13:16:23;2.78;;;1.77;;
55720;SDS011;41626;53.098;6.168;2022-08-25T13:18:53;4.43;;;1.83;;
55720;SDS011;41626;53.098;6.168;2022-08-25T13:21:32;4.95;;;1.73;;
55720;SDS011;41626;53.098;6.168;2022-08-25T13:24:01;1.42;;;1.33;;
55720;SDS011;41626;53.098;6.168;2022-08-25T13:29:13;3.67;;;2.30;;
55720;SDS011;41626;53.098;6.168;2022-08-25T13:32:24;4.45;;;1.67;;
55720;SDS011;41626;53.098;6.168;2022-08-25T13:34:39;3.75;;;1.50;;
55720;SDS011;41626;53.098;6.168;2022-08-25T13:37:06;8.70;;;2.30;;
55720;SDS011;41626;53.098;6.168;2022-08-25T13:42:50;5.63;;;2.08;;
55720;SDS011;41626;53.098;6.168;2022-08-25T13:45:24;4.50;;;1.67;;
55720;SDS011;41626;53.098;6.168;2022-08-25T13:47:52;2.45;;;2.25;;
55720;SDS011;41626;53.098;6.168;2022-08-25T13:52:52;4.63;;;2.13;;
55720;SDS011;41626;53.098;6.168;2022-08-25T13:55:21;3.53;;;1.58;;
55720;SDS011;41626;53.098;6.168;2022-08-25T13:57:50;3.55;;;2.35;;
55720;SDS011;41626;53.098;6.168;2022-08-25T14:00:27;2.45;;;1.85;;
55720;SDS011;41626;53.098;6.168;2022-08-25T14:02:55;3.53;;;1.50;;
55720;SDS011;41626;53.098;6.168;2022-08-25T14:05:55;4.55;;;1.77;;
55720;SDS011;41626;53.098;6.168;2022-08-25T14:08:29;2.70;;;1.73;;
55720;SDS011;41626;53.098;6.168;2022-08-25T14:13:58;5.65;;;1.98;;
55720;SDS011;41626;53.098;6.168;2022-08-25T14:16:59;3.33;;;2.00;;
55720;SDS011;41626;53.098;6.168;2022-08-25T14:19:27;3.85;;;2.55;;
55720;SDS011;41626;53.098;6.168;2022-08-25T14:21:53;4.25;;;2.67;;
55720;SDS011;41626;53.098;6.168;2022-08-25T14:24:22;5.10;;;1.80;;
55720;SDS011;41626;53.098;6.168;2022-08-25T14:26:48;3.13;;;1.58;;
55720;SDS011;41626;53.098;6.168;2022-08-25T14:29:15;3.72;;;1.90;;
55720;SDS011;41626;53.098;6.168;2022-08-25T14:31:42;2.60;;;1.73;;
55720;SDS011;41626;53.098;6.168;2022-08-25T14:34:16;3.17;;;1.75;;
55720;SDS011;41626;53.098;6.168;2022-08-25T14:36:44;5.28;;;2.28;;
55720;SDS011;41626;53.098;6.168;2022-08-25T14:39:13;2.60;;;1.65;;
55720;SDS011;41626;53.098;6.168;2022-08-25T14:41:39;6.50;;;2.00;;
55720;SDS011;41626;53.098;6.168;2022-08-25T14:44:07;3.60;;;1.77;;
55720;SDS011;41626;53.098;6.168;2022-08-25T14:46:34;4.57;;;1.73;;
55720;SDS011;41626;53.098;6.168;2022-08-25T14:49:04;4.72;;;1.77;;
55720;SDS011;41626;53.098;6.168;2022-08-25T14:51:32;3.30;;;1.38;;
55720;SDS011;41626;53.098;6.168;2022-08-25T14:53:59;4.18;;;1.70;;
55720;SDS011;41626;53.098;6.168;2022-08-25T14:56:28;3.38;;;1.88;;
55720;SDS011;41626;53.098;6.168;2022-08-25T14:58:55;3.08;;;1.75;;
55720;SDS011;41626;53.098;6.168;2022-08-25T15:01:22;4.28;;;1.08;;
55720;SDS011;41626;53.098;6.168;2022-08-25T15:03:49;3.75;;;1.85;;
55720;SDS011;41626;53.098;6.168;2022-08-25T15:08:43;3.47;;;1.33;;
55720;SDS011;41626;53.098;6.168;2022-08-25T15:11:28;2.67;;;1.33;;
55720;SDS011;41626;53.098;6.168;2022-08-25T15:13:54;1.42;;;1.33;;
55720;SDS011;41626;53.098;6.168;2022-08-25T15:16:26;3.08;;;1.27;;
55720;SDS011;41626;53.098;6.168;2022-08-25T15:18:54;1.70;;;1.23;;
55720;SDS011;41626;53.098;6.168;2022-08-25T15:21:20;4.60;;;1.75;;
55720;SDS011;41626;53.098;6.168;2022-08-25T15:23:46;1.95;;;1.40;;
55720;SDS011;41626;53.098;6.168;2022-08-25T15:26:12;3.75;;;1.23;;
55720;SDS011;41626;53.098;6.168;2022-08-25T15:28:40;11.35;;;1.33;;
55720;SDS011;41626;53.098;6.168;2022-08-25T15:31:10;1.80;;;1.52;;
55720;SDS011;41626;53.098;6.168;2022-08-25T15:33:37;4.43;;;1.60;;
55720;SDS011;41626;53.098;6.168;2022-08-25T15:36:03;3.95;;;1.45;;
55720;SDS011;41626;53.098;6.168;2022-08-25T15:38:37;2.33;;;1.80;;
55720;SDS011;41626;53.098;6.168;2022-08-25T15:41:03;3.35;;;1.48;;
55720;SDS011;41626;53.098;6.168;2022-08-25T15:43:30;4.57;;;1.40;;
55720;SDS011;41626;53.098;6.168;2022-08-25T15:45:56;1.88;;;1.52;;
55720;SDS011;41626;53.098;6.168;2022-08-25T15:48:22;1.83;;;1.55;;
55720;SDS011;41626;53.098;6.168;2022-08-25T15:50:51;2.20;;;1.48;;
55720;SDS011;41626;53.098;6.168;2022-08-25T15:53:19;4.85;;;1.70;;
55720;SDS011;41626;53.098;6.168;2022-08-25T15:55:46;2.83;;;1.60;;
55720;SDS011;41626;53.098;6.168;2022-08-25T15:58:13;2.40;;;1.92;;
55720;SDS011;41626;53.098;6.168;2022-08-25T16:00:41;4.53;;;2.00;;
55720;SDS011;41626;53.098;6.168;2022-08-25T16:03:08;3.65;;;2.20;;
55720;SDS011;41626;53.098;6.168;2022-08-25T16:05:37;9.80;;;1.85;;
55720;SDS011;41626;53.098;6.168;2022-08-25T16:08:05;2.63;;;2.10;;
55720;SDS011;41626;53.098;6.168;2022-08-25T16:10:32;4.13;;;1.90;;
55720;SDS011;41626;53.098;6.168;2022-08-25T16:12:59;4.85;;;1.88;;
55720;SDS011;41626;53.098;6.168;2022-08-25T16:15:26;2.80;;;1.73;;
55720;SDS011;41626;53.098;6.168;2022-08-25T16:17:52;3.83;;;2.20;;
55720;SDS011;41626;53.098;6.168;2022-08-25T16:20:18;3.28;;;1.85;;
55720;SDS011;41626;53.098;6.168;2022-08-25T16:22:45;3.10;;;1.83;;
55720;SDS011;41626;53.098;6.168;2022-08-25T16:25:14;6.15;;;2.85;;
55720;SDS011;41626;53.098;6.168;2022-08-25T16:27:40;9.40;;;1.98;;
55720;SDS011;41626;53.098;6.168;2022-08-25T16:30:06;2.97;;;2.00;;
55720;SDS011;41626;53.098;6.168;2022-08-25T16:32:34;4.78;;;1.75;;
55720;SDS011;41626;53.098;6.168;2022-08-25T16:34:59;8.25;;;2.90;;
55720;SDS011;41626;53.098;6.168;2022-08-25T16:37:25;7.30;;;2.58;;
55720;SDS011;41626;53.098;6.168;2022-08-25T16:39:52;9.98;;;3.03;;
55720;SDS011;41626;53.098;6.168;2022-08-25T16:42:18;8.27;;;2.88;;
55720;SDS011;41626;53.098;6.168;2022-08-25T16:44:43;6.43;;;3.08;;
55720;SDS011;41626;53.098;6.168;2022-08-25T16:47:09;3.30;;;1.98;;
55720;SDS011;41626;53.098;6.168;2022-08-25T16:49:36;3.85;;;2.25;;
55720;SDS011;41626;53.098;6.168;2022-08-25T16:52:03;3.25;;;2.00;;
55720;SDS011;41626;53.098;6.168;2022-08-25T16:54:48;4.25;;;2.10;;
55720;SDS011;41626;53.098;6.168;2022-08-25T16:57:32;3.00;;;2.10;;
55720;SDS011;41626;53.098;6.168;2022-08-25T16:59:58;4.78;;;2.15;;
55720;SDS011;41626;53.098;6.168;2022-08-25T17:02:24;5.68;;;1.95;;
55720;SDS011;41626;53.098;6.168;2022-08-25T17:04:49;6.65;;;2.65;;
55720;SDS011;41626;53.098;6.168;2022-08-25T17:07:15;3.20;;;2.50;;
55720;SDS011;41626;53.098;6.168;2022-08-25T17:09:41;7.80;;;3.15;;
55720;SDS011;41626;53.098;6.168;2022-08-25T17:12:07;3.70;;;2.30;;
55720;SDS011;41626;53.098;6.168;2022-08-25T17:14:33;3.58;;;2.22;;